createdAt,value
2022-08-23T00:01:39.221Z,7.50
2022-08-23T00:04:12.835Z,6.80
2022-08-23T00:06:42.450Z,8.30
2022-08-23T00:09:12.186Z,7.00
2022-08-23T00:11:49.655Z,7.70
2022-08-23T00:14:27.213Z,11.20
2022-08-23T00:16:57.754Z,7.80
2022-08-23T00:19:27.596Z,8.30
2022-08-23T00:21:56.794Z,7.20
2022-08-23T00:24:26.129Z,8.30
2022-08-23T00:27:10.715Z,7.80
2022-08-23T00:29:50.695Z,9.60
2022-08-23T00:32:23.570Z,9.10
2022-08-23T00:34:52.239Z,8.30
2022-08-23T00:37:21.937Z,10.70
2022-08-23T00:39:49.810Z,7.90
2022-08-23T00:43:16.042Z,9.10
2022-08-23T00:46:17.586Z,7.20
2022-08-23T00:51:22.813Z,5.80
2022-08-23T00:53:58.637Z,7.70
2022-08-23T00:56:30.599Z,6.30
2022-08-23T00:58:59.314Z,6.00
2022-08-23T01:01:28.074Z,5.50
2022-08-23T01:04:04.733Z,5.80
2022-08-23T01:06:45.435Z,6.00
2022-08-23T01:09:18.711Z,5.60
2022-08-23T01:12:00.186Z,5.50
2022-08-23T01:14:40.784Z,6.30
2022-08-23T01:17:46.106Z,6.10
2022-08-23T01:20:21.456Z,6.70
2022-08-23T01:23:04.343Z,6.70
2022-08-23T01:25:34.688Z,8.20
2022-08-23T01:28:03.578Z,6.90
2022-08-23T01:30:33.779Z,6.60
2022-08-23T01:33:07.354Z,6.90
2022-08-23T01:35:44.887Z,8.80
2022-08-23T01:38:14.333Z,9.80
2022-08-23T01:40:44.882Z,8.60
2022-08-23T01:43:15.428Z,8.80
2022-08-23T01:45:43.798Z,6.80
2022-08-23T01:48:14.976Z,8.90
2022-08-23T01:50:43.062Z,8.60
2022-08-23T01:53:12.151Z,8.00
2022-08-23T01:55:44.255Z,7.00
2022-08-23T01:58:12.938Z,7.10
2022-08-23T02:00:44.395Z,7.90
2022-08-23T02:03:14.317Z,7.40
2022-08-23T02:05:43.440Z,7.50
2022-08-23T02:08:31.675Z,7.10
2022-08-23T02:11:07.689Z,8.70
2022-08-23T02:13:36.314Z,8.00
2022-08-23T02:16:05.030Z,7.60
2022-08-23T02:18:33.681Z,8.30
2022-08-23T02:21:02.101Z,8.50
2022-08-23T02:23:30.522Z,7.80
2022-08-23T02:25:58.383Z,8.50
2022-08-23T02:28:26.204Z,7.70
2022-08-23T02:30:54.719Z,7.40
2022-08-23T02:33:23.771Z,10.10
2022-08-23T02:35:51.834Z,10.60
2022-08-23T02:38:20.714Z,9.30
2022-08-23T02:41:00.609Z,8.00
2022-08-23T02:43:29.079Z,8.90
2022-08-23T02:45:57.166Z,9.20
2022-08-23T02:48:25.671Z,9.70
2022-08-23T02:51:05.673Z,9.40
2022-08-23T02:53:34.058Z,9.40
2022-08-23T02:56:03.026Z,8.40
2022-08-23T02:58:30.876Z,9.60
2022-08-23T03:00:59.688Z,8.90
2022-08-23T03:03:28.358Z,8.20
2022-08-23T03:05:57.243Z,8.80
2022-08-23T03:08:45.649Z,8.20
2022-08-23T03:11:18.149Z,8.20
2022-08-23T03:13:46.857Z,9.50
2022-08-23T03:16:17.108Z,10.00
2022-08-23T03:18:47.783Z,10.70
2022-08-23T03:21:17.234Z,8.50
2022-08-23T03:23:46.280Z,8.70
2022-08-23T03:26:16.326Z,10.90
2022-08-23T03:28:45.772Z,11.20
2022-08-23T03:31:16.825Z,14.20
2022-08-23T03:33:54.258Z,11.10
2022-08-23T03:36:28.101Z,10.80
2022-08-23T03:38:56.769Z,12.40
2022-08-23T03:41:25.583Z,11.40
2022-08-23T03:43:53.454Z,10.90
2022-08-23T03:46:24.436Z,12.60
2022-08-23T03:49:01.214Z,11.70
2022-08-23T03:51:34.416Z,13.70
2022-08-23T03:54:03.251Z,11.00
2022-08-23T03:56:38.775Z,12.20
2022-08-23T03:59:13.758Z,13.00
2022-08-23T04:01:41.927Z,13.00
2022-08-23T04:04:10.811Z,11.50
2022-08-23T04:06:45.102Z,13.10
2022-08-23T04:09:15.406Z,11.80
2022-08-23T04:11:44.801Z,11.50
2022-08-23T04:14:13.666Z,14.60
2022-08-23T04:16:42.063Z,11.80
2022-08-23T04:19:14.809Z,13.00
2022-08-23T04:21:52.828Z,14.50
2022-08-23T04:24:21.022Z,13.40
2022-08-23T04:26:49.512Z,13.20
2022-08-23T04:29:33.655Z,14.70
2022-08-23T04:32:05.617Z,13.90
2022-08-23T04:34:39.906Z,12.90
2022-08-23T04:37:10.060Z,14.00
2022-08-23T04:39:58.793Z,16.20
2022-08-23T04:44:57.848Z,12.50
2022-08-23T04:47:25.686Z,14.50
2022-08-23T04:49:53.974Z,17.10
2022-08-23T04:52:21.852Z,13.80
2022-08-23T04:54:50.349Z,14.50
2022-08-23T04:57:36.797Z,15.80
2022-08-23T05:00:07.009Z,14.40
2022-08-23T05:02:36.174Z,16.80
2022-08-23T05:05:05.571Z,16.00
2022-08-23T05:07:42.392Z,17.10
2022-08-23T05:10:16.340Z,14.10
2022-08-23T05:12:48.706Z,16.40
2022-08-23T05:15:17.589Z,15.20
2022-08-23T05:17:47.638Z,16.50
2022-08-23T05:20:15.607Z,18.00
2022-08-23T05:22:43.556Z,19.10
2022-08-23T05:25:22.111Z,18.90
2022-08-23T05:27:50.480Z,16.30
2022-08-23T05:30:18.395Z,18.70
2022-08-23T05:32:46.669Z,19.30
2022-08-23T05:35:14.702Z,16.50
2022-08-23T05:37:44.309Z,16.40
2022-08-23T05:40:12.156Z,20.20
2022-08-23T05:42:48.667Z,24.00
2022-08-23T05:45:21.712Z,28.30
2022-08-23T05:47:50.014Z,22.30
2022-08-23T05:50:26.910Z,22.30
2022-08-23T05:52:54.824Z,27.80
2022-08-23T05:55:23.609Z,24.10
2022-08-23T05:58:17.351Z,22.80
2022-08-23T06:00:45.316Z,26.50
2022-08-23T06:03:13.553Z,18.60
2022-08-23T06:05:42.168Z,23.40
2022-08-23T06:08:11.456Z,20.70
2022-08-23T06:10:42.317Z,23.50
2022-08-23T06:13:27.003Z,21.20
2022-08-23T06:15:57.515Z,19.20
2022-08-23T06:18:28.696Z,19.30
2022-08-23T06:21:09.027Z,22.80
2022-08-23T06:23:49.612Z,21.30
2022-08-23T06:26:23.990Z,22.50
2022-08-23T06:28:57.061Z,21.60
2022-08-23T06:31:45.501Z,19.30
2022-08-23T06:37:23.200Z,20.10
2022-08-23T06:40:09.917Z,18.80
2022-08-23T06:42:49.655Z,22.30
2022-08-23T06:45:33.850Z,19.10
2022-08-23T06:48:08.226Z,17.40
2022-08-23T06:50:36.153Z,19.00
2022-08-23T06:53:22.403Z,17.80
2022-08-23T06:56:28.345Z,23.00
2022-08-23T06:59:09.414Z,17.50
2022-08-23T07:02:01.891Z,15.70
2022-08-23T07:04:53.862Z,18.00
2022-08-23T07:07:41.472Z,17.80
2022-08-23T07:10:15.494Z,15.30
2022-08-23T07:12:44.283Z,13.20
2022-08-23T07:15:14.387Z,13.00
2022-08-23T07:17:46.414Z,13.70
2022-08-23T07:20:14.526Z,11.30
2022-08-23T07:22:44.578Z,13.30
2022-08-23T07:25:12.819Z,12.00
2022-08-23T07:27:41.628Z,12.30
2022-08-23T07:30:11.633Z,10.80
2022-08-23T07:35:21.491Z,10.00
2022-08-23T07:37:50.655Z,8.90
2022-08-23T07:40:20.574Z,9.20
2022-08-23T07:42:49.606Z,9.40
2022-08-23T07:45:18.540Z,7.20
2022-08-23T07:47:51.795Z,7.00
2022-08-23T07:50:20.130Z,6.20
2022-08-23T07:52:48.722Z,6.30
2022-08-23T07:55:16.948Z,5.30
2022-08-23T07:58:07.730Z,4.90
2022-08-23T08:00:56.265Z,4.60
2022-08-23T08:03:33.827Z,5.20
2022-08-23T08:06:43.895Z,6.60
2022-08-23T08:09:13.379Z,9.60
2022-08-23T08:11:45.267Z,7.50
2022-08-23T08:14:16.160Z,6.70
2022-08-23T08:16:52.311Z,5.70
2022-08-23T08:19:33.906Z,6.30
2022-08-23T08:22:24.568Z,6.30
2022-08-23T08:25:12.132Z,7.50
2022-08-23T08:27:42.077Z,5.20
2022-08-23T08:30:12.529Z,5.20
2022-08-23T08:32:47.198Z,5.80
2022-08-23T08:35:26.287Z,4.40
2022-08-23T08:37:54.342Z,4.60
2022-08-23T08:40:37.847Z,5.10
2022-08-23T08:43:41.510Z,4.90
2022-08-23T08:48:53.748Z,4.60
2022-08-23T08:51:28.643Z,5.10
2022-08-23T08:53:58.939Z,5.80
2022-08-23T08:56:36.822Z,4.50
2022-08-23T09:01:48.656Z,6.20
2022-08-23T09:04:22.239Z,6.60
2022-08-23T09:07:12.550Z,4.40
2022-08-23T09:10:09.744Z,5.50
2022-08-23T09:13:05.372Z,4.20
2022-08-23T09:15:55.955Z,5.10
2022-08-23T09:18:24.382Z,4.40
2022-08-23T09:20:55.594Z,4.50
2022-08-23T09:23:32.363Z,5.20
2022-08-23T09:26:15.689Z,5.50
2022-08-23T09:28:46.204Z,5.40
2022-08-23T09:31:47.409Z,4.40
2022-08-23T09:34:37.105Z,4.60
2022-08-23T09:37:12.967Z,6.50
2022-08-23T09:40:14.234Z,3.00
2022-08-23T09:42:42.535Z,4.30
2022-08-23T09:45:35.896Z,3.80
2022-08-23T09:48:07.006Z,4.60
2022-08-23T09:50:50.378Z,4.40
2022-08-23T09:53:28.112Z,5.70
2022-08-23T09:56:11.412Z,3.60
2022-08-23T09:58:44.791Z,4.40
2022-08-23T10:01:26.603Z,4.20
2022-08-23T10:04:21.690Z,4.40
2022-08-23T10:06:51.634Z,3.10
2022-08-23T10:09:31.558Z,3.40
2022-08-23T10:12:02.317Z,4.30
2022-08-23T10:14:33.030Z,5.80
2022-08-23T10:17:04.882Z,5.20
2022-08-23T10:20:02.960Z,6.60
2022-08-23T10:22:58.307Z,6.00
2022-08-23T10:25:42.528Z,6.00
2022-08-23T10:28:35.759Z,5.70
2022-08-23T10:31:19.566Z,5.50
2022-08-23T10:34:32.468Z,5.30
2022-08-23T10:37:37.287Z,5.60
2022-08-23T10:40:28.721Z,4.20
2022-08-23T10:43:27.263Z,4.60
2022-08-23T10:46:00.760Z,4.50
2022-08-23T10:48:51.511Z,3.10
2022-08-23T10:51:31.639Z,4.60
2022-08-23T10:54:12.612Z,4.30
2022-08-23T10:56:51.046Z,4.00
2022-08-23T10:59:25.983Z,8.40
2022-08-23T11:02:05.295Z,4.00
2022-08-23T11:04:59.119Z,3.70
2022-08-23T11:07:34.898Z,5.70
2022-08-23T11:10:25.335Z,2.90
2022-08-23T11:13:03.881Z,7.00
2022-08-23T11:15:44.822Z,3.40
2022-08-23T11:18:48.610Z,4.00
2022-08-23T11:21:33.444Z,3.50
2022-08-23T11:24:04.910Z,4.30
2022-08-23T11:26:37.768Z,4.20
2022-08-23T11:29:10.835Z,3.80
2022-08-23T11:32:14.713Z,6.90
2022-08-23T11:34:56.420Z,6.80
2022-08-23T11:37:47.629Z,5.10
2022-08-23T11:40:40.962Z,4.50
2022-08-23T11:43:32.800Z,4.40
2022-08-23T11:46:25.876Z,3.60
2022-08-23T11:49:18.555Z,3.20
2022-08-23T11:52:31.759Z,3.90
2022-08-23T11:55:31.041Z,3.40
2022-08-23T11:58:50.837Z,6.40
2022-08-23T12:01:39.418Z,7.70
2022-08-23T12:04:31.632Z,4.90
2022-08-23T12:07:07.714Z,4.90
2022-08-23T12:09:36.635Z,5.20
2022-08-23T12:12:13.647Z,4.60
2022-08-23T12:14:44.251Z,6.70
2022-08-23T12:17:12.007Z,6.00
2022-08-23T12:19:53.864Z,8.70
2022-08-23T12:22:28.681Z,8.60
2022-08-23T12:25:19.802Z,6.00
2022-08-23T12:30:36.251Z,4.70
2022-08-23T12:33:43.398Z,4.40
2022-08-23T12:36:29.806Z,4.40
2022-08-23T12:39:19.686Z,6.40
2022-08-23T12:42:18.302Z,4.40
2022-08-23T12:45:00.311Z,5.10
2022-08-23T12:47:28.223Z,5.50
2022-08-23T12:50:21.012Z,4.70
2022-08-23T12:53:15.789Z,4.60
2022-08-23T12:55:52.219Z,3.90
2022-08-23T12:58:33.355Z,2.90
2022-08-23T13:01:16.847Z,5.80
2022-08-23T13:03:51.913Z,5.60
2022-08-23T13:06:25.702Z,3.60
2022-08-23T13:09:04.454Z,4.70
2022-08-23T13:11:34.772Z,3.70
2022-08-23T13:14:35.084Z,2.90
2022-08-23T13:17:26.634Z,4.50
2022-08-23T13:20:22.991Z,3.50
2022-08-23T13:23:15.304Z,3.10
2022-08-23T13:25:43.724Z,3.70
2022-08-23T13:28:31.176Z,4.60
2022-08-23T13:31:05.048Z,3.40
2022-08-23T13:33:32.984Z,3.60
2022-08-23T13:36:19.335Z,3.60
2022-08-23T13:38:50.361Z,3.80
2022-08-23T13:41:38.979Z,3.60
2022-08-23T13:44:09.421Z,3.20
2022-08-23T13:46:47.096Z,3.00
2022-08-23T13:49:22.576Z,4.30
2022-08-23T13:54:58.852Z,3.80
2022-08-23T13:57:30.076Z,3.80
2022-08-23T14:00:02.339Z,3.90
2022-08-23T14:02:39.289Z,4.80
2022-08-23T14:05:09.649Z,4.50
2022-08-23T14:07:37.554Z,4.70
2022-08-23T14:10:06.066Z,4.60
2022-08-23T14:12:35.889Z,4.10
2022-08-23T14:15:06.868Z,3.30
2022-08-23T14:17:43.062Z,6.20
2022-08-23T14:23:04.857Z,3.10
2022-08-23T14:25:39.942Z,5.00
2022-08-23T14:28:07.743Z,3.30
2022-08-23T14:30:37.098Z,4.40
2022-08-23T14:33:06.403Z,3.30
2022-08-23T14:35:34.387Z,2.90
2022-08-23T14:38:03.798Z,2.30
2022-08-23T14:40:36.162Z,2.30
2022-08-23T14:43:05.772Z,2.40
2022-08-23T14:45:33.552Z,3.70
2022-08-23T14:48:02.342Z,3.70
2022-08-23T14:50:31.095Z,2.50
2022-08-23T14:52:59.069Z,1.80
2022-08-23T14:55:27.315Z,2.50
2022-08-23T14:57:55.180Z,2.00
2022-08-23T15:00:23.638Z,1.80
2022-08-23T15:02:51.639Z,3.30
2022-08-23T15:05:19.626Z,2.00
2022-08-23T15:07:47.469Z,1.50
2022-08-23T15:13:28.425Z,2.60
2022-08-23T15:15:53.818Z,3.70
2022-08-23T15:18:22.159Z,4.10
2022-08-23T15:20:52.404Z,2.50
2022-08-23T15:23:21.215Z,2.70
2022-08-23T15:25:49.943Z,3.40
2022-08-23T15:28:21.379Z,2.80
2022-08-23T15:30:51.546Z,2.50
2022-08-23T15:33:23.380Z,3.40
2022-08-23T15:35:55.755Z,2.40
2022-08-23T15:38:25.726Z,3.90
2022-08-23T15:40:54.907Z,3.40
2022-08-23T15:43:28.774Z,2.70
2022-08-23T15:46:06.733Z,4.20
2022-08-23T15:48:43.954Z,4.20
2022-08-23T15:51:12.427Z,3.20
2022-08-23T15:53:40.527Z,3.30
2022-08-23T15:56:15.299Z,3.20
2022-08-23T15:58:43.709Z,3.00
2022-08-23T16:01:12.219Z,4.50
2022-08-23T16:03:42.428Z,3.80
2022-08-23T16:06:13.997Z,5.90
2022-08-23T16:08:49.523Z,4.50
2022-08-23T16:11:17.355Z,3.00
2022-08-23T16:13:48.452Z,3.30
2022-08-23T16:16:28.996Z,3.80
2022-08-23T16:19:00.098Z,2.80
2022-08-23T16:21:30.802Z,2.20
2022-08-23T16:23:59.366Z,3.00
2022-08-23T16:26:35.662Z,3.40
2022-08-23T16:29:10.011Z,4.40
2022-08-23T16:31:39.848Z,3.90
2022-08-23T16:34:12.547Z,5.20
2022-08-23T16:36:44.186Z,3.40
2022-08-23T16:39:15.179Z,3.10
2022-08-23T16:41:43.150Z,3.30
2022-08-23T16:44:11.043Z,2.00
2022-08-23T16:46:43.938Z,3.90
2022-08-23T16:49:16.885Z,2.30
2022-08-23T16:51:46.528Z,2.90
2022-08-23T16:54:14.739Z,2.60
2022-08-23T16:56:43.544Z,2.70
2022-08-23T16:59:13.354Z,2.70
2022-08-23T17:01:55.721Z,3.00
2022-08-23T17:04:30.315Z,2.00
2022-08-23T17:07:00.064Z,3.00
2022-08-23T17:09:29.273Z,5.90
2022-08-23T17:12:01.050Z,2.30
2022-08-23T17:14:28.868Z,3.20
2022-08-23T17:16:56.764Z,3.20
2022-08-23T17:19:24.838Z,2.30
2022-08-23T17:21:54.851Z,3.20
2022-08-23T17:24:23.742Z,3.40
2022-08-23T17:26:51.594Z,2.90
2022-08-23T17:29:20.340Z,4.60
2022-08-23T17:31:48.810Z,4.30
2022-08-23T17:34:16.681Z,3.60
2022-08-23T17:36:50.828Z,5.20
2022-08-23T17:39:27.305Z,5.00
2022-08-23T17:41:57.844Z,3.50
2022-08-23T17:44:25.795Z,3.30
2022-08-23T17:46:53.785Z,2.80
2022-08-23T17:49:21.722Z,4.80
2022-08-23T17:51:49.563Z,5.40
2022-08-23T17:54:18.489Z,4.20
2022-08-23T17:56:49.926Z,3.90
2022-08-23T17:59:22.566Z,4.00
2022-08-23T18:01:52.084Z,5.10
2022-08-23T18:04:19.881Z,5.20
2022-08-23T18:06:47.880Z,5.30
2022-08-23T18:09:16.475Z,5.70
2022-08-23T18:11:44.622Z,5.80
2022-08-23T18:14:12.502Z,4.20
2022-08-23T18:16:45.379Z,4.50
2022-08-23T18:19:13.558Z,5.70
2022-08-23T18:21:43.146Z,4.50
2022-08-23T18:24:11.446Z,4.10
2022-08-23T18:26:59.189Z,51.90
2022-08-23T18:29:29.438Z,7.40
2022-08-23T18:31:57.380Z,27.20
2022-08-23T18:34:25.519Z,12.70
2022-08-23T18:36:53.821Z,5.70
2022-08-23T18:39:27.623Z,14.00
2022-08-23T18:42:05.775Z,4.20
2022-08-23T18:44:33.646Z,9.70
2022-08-23T18:47:03.486Z,6.90
2022-08-23T18:49:33.767Z,3.60
2022-08-23T18:52:02.635Z,3.80
2022-08-23T18:54:33.942Z,4.90
2022-08-23T18:57:03.566Z,5.40
2022-08-23T18:59:31.611Z,3.50
2022-08-23T19:01:59.628Z,3.40
2022-08-23T19:04:27.704Z,3.30
2022-08-23T19:06:55.819Z,4.10
2022-08-23T19:09:23.587Z,4.10
2022-08-23T19:11:51.420Z,3.80
2022-08-23T19:14:19.410Z,2.50
2022-08-23T19:16:48.478Z,5.40
2022-08-23T19:19:18.783Z,1.90
2022-08-23T19:21:47.153Z,2.30
2022-08-23T19:24:15.104Z,2.10
2022-08-23T19:26:47.398Z,3.10
2022-08-23T19:29:18.634Z,2.30
2022-08-23T19:31:48.265Z,2.60
2022-08-23T19:34:19.896Z,2.60
2022-08-23T19:36:54.653Z,3.10
2022-08-23T19:39:27.773Z,3.90
2022-08-23T19:41:55.650Z,4.10
2022-08-23T19:44:24.232Z,4.60
2022-08-23T19:46:52.366Z,4.00
2022-08-23T19:49:20.279Z,3.60
2022-08-23T19:51:48.107Z,3.90
2022-08-23T19:54:16.374Z,4.60
2022-08-23T19:56:54.806Z,5.80
2022-08-23T19:59:30.513Z,4.80
2022-08-23T20:01:59.855Z,6.00
2022-08-23T20:04:32.439Z,6.10
2022-08-23T20:07:04.262Z,7.70
2022-08-23T20:09:33.376Z,6.50
2022-08-23T20:12:02.504Z,6.80
2022-08-23T20:14:33.192Z,5.70
2022-08-23T20:17:04.435Z,6.30
2022-08-23T20:22:19.946Z,8.20
2022-08-23T20:24:51.913Z,6.90
2022-08-23T20:27:28.287Z,7.60
2022-08-23T20:30:06.172Z,7.00
2022-08-23T20:32:34.723Z,7.30
2022-08-23T20:35:06.935Z,6.20
2022-08-23T20:37:35.955Z,6.30
2022-08-23T20:40:07.005Z,7.80
2022-08-23T20:45:02.961Z,11.40
2022-08-23T20:47:30.768Z,7.30
2022-08-23T20:49:58.568Z,8.60
2022-08-23T20:52:26.683Z,9.80
2022-08-23T20:54:54.472Z,7.80
2022-08-23T20:57:22.314Z,8.80
2022-08-23T20:59:50.119Z,9.70
2022-08-23T21:02:18.121Z,8.90
2022-08-23T21:04:46.110Z,10.10
2022-08-23T21:07:15.759Z,7.30
2022-08-23T21:09:43.731Z,8.90
2022-08-23T21:12:11.600Z,9.10
2022-08-23T21:14:39.427Z,7.80
2022-08-23T21:17:07.712Z,7.60
2022-08-23T21:19:35.583Z,7.80
2022-08-23T21:22:03.735Z,9.10
2022-08-23T21:24:32.231Z,7.40
2022-08-23T21:27:00.158Z,8.80
2022-08-23T21:29:27.949Z,11.00
2022-08-23T21:31:55.738Z,13.00
2022-08-23T21:34:23.783Z,7.30
2022-08-23T21:36:52.294Z,8.30
2022-08-23T21:39:20.426Z,8.80
2022-08-23T21:41:48.441Z,7.30
2022-08-23T21:44:20.517Z,8.50
2022-08-23T21:46:49.152Z,8.20
2022-08-23T21:49:18.143Z,8.50
2022-08-23T21:51:46.018Z,7.20
2022-08-23T21:54:15.974Z,6.90
2022-08-23T21:56:45.826Z,7.60
2022-08-23T21:59:18.011Z,7.20
2022-08-23T22:01:46.890Z,5.70
2022-08-23T22:04:16.350Z,5.40
2022-08-23T22:06:47.413Z,7.90
2022-08-23T22:09:25.712Z,7.30
2022-08-23T22:11:55.850Z,6.10
2022-08-23T22:14:31.384Z,5.00
2022-08-23T22:17:00.566Z,3.90
2022-08-23T22:19:28.581Z,5.30
2022-08-23T22:21:56.932Z,3.60
2022-08-23T22:24:26.362Z,4.50
2022-08-23T22:26:55.493Z,5.10
2022-08-23T22:29:24.651Z,8.40
2022-08-23T22:31:52.846Z,6.80
2022-08-23T22:34:20.941Z,5.20
2022-08-23T22:36:51.469Z,8.30
2022-08-23T22:39:22.018Z,7.10
2022-08-23T22:41:50.278Z,9.70
2022-08-23T22:44:18.538Z,8.20
2022-08-23T22:46:46.591Z,8.90
2022-08-23T22:49:14.555Z,6.70
2022-08-23T22:51:42.645Z,7.50
2022-08-23T22:54:12.318Z,9.10
2022-08-23T22:56:49.073Z,8.60
2022-08-23T22:59:20.453Z,8.40
2022-08-23T23:01:54.824Z,7.60
2022-08-23T23:04:26.553Z,10.30
2022-08-23T23:06:55.713Z,10.20
2022-08-23T23:09:25.060Z,9.70
2022-08-23T23:11:54.396Z,11.20
2022-08-23T23:14:22.654Z,9.80
2022-08-23T23:16:50.912Z,12.70
2022-08-23T23:19:39.400Z,12.20
2022-08-23T23:22:09.031Z,11.10
2022-08-23T23:24:39.800Z,11.30
2022-08-23T23:27:08.176Z,13.30
2022-08-23T23:29:36.557Z,14.00
2022-08-23T23:32:05.775Z,11.10
2022-08-23T23:34:33.804Z,12.90
2022-08-23T23:37:02.607Z,14.20
2022-08-23T23:39:30.724Z,13.50
2022-08-23T23:41:58.672Z,12.40
2022-08-23T23:44:31.087Z,10.60
2022-08-23T23:47:03.108Z,7.60
2022-08-23T23:49:32.985Z,7.30
2022-08-23T23:52:05.807Z,9.90
2022-08-23T23:54:35.630Z,6.20
2022-08-23T23:57:06.477Z,7.10
2022-08-23T23:59:35.230Z,8.20
